Time;durP1;ratioP1;P1;durP2;ratioP2;P2;SDS_P1;SDS_P2;PMS_P1;PMS_P2;Temp;Humidity;BMP_temperature;BMP_pressure;BME280_temperature;BME280_humidity;BME280_pressure;Samples;Min_cycle;Max_cycle;Signal;HPM_P1;HPM_P2
2023/09/20 00:01:33;;;;;;;4.72;1.40;;;16.40;99.90;;;;;;4970963;28;20082;-61
2023/09/20 00:04:01;;;;;;;3.70;1.33;;;16.50;99.90;;;;;;4955345;28;20450;-61
2023/09/20 00:06:27;;;;;;;5.40;1.27;;;16.50;99.90;;;;;;4983238;28;20050;-61
2023/09/20 00:08:53;;;;;;;3.03;1.35;;;16.50;99.90;;;;;;4971054;28;20042;-62
2023/09/20 00:11:19;;;;;;;2.20;1.25;;;16.50;99.90;;;;;;4971322;28;20093;-62
2023/09/20 00:13:45;;;;;;;2.33;0.90;;;16.50;99.90;;;;;;4972187;28;20042;-62
2023/09/20 00:16:11;;;;;;;3.47;1.65;;;16.60;99.90;;;;;;4988621;28;20057;-61
2023/09/20 00:18:38;;;;;;;4.43;1.60;;;16.60;99.90;;;;;;4970291;28;20046;-62
2023/09/20 00:21:04;;;;;;;6.32;1.65;;;16.60;99.90;;;;;;4969912;28;20046;-62
2023/09/20 00:23:30;;;;;;;3.03;0.93;;;16.70;99.90;;;;;;4988701;28;20045;-61
2023/09/20 00:25:56;;;;;;;5.28;0.90;;;16.70;99.90;;;;;;4971046;28;20395;-61
2023/09/20 00:28:22;;;;;;;2.38;1.30;;;16.70;99.90;;;;;;4987860;28;20057;-61
2023/09/20 00:30:48;;;;;;;1.40;0.98;;;16.70;99.90;;;;;;4971112;28;20054;-61
2023/09/20 00:33:17;;;;;;;2.25;0.90;;;16.70;99.90;;;;;;4970996;28;20042;-61
2023/09/20 00:35:43;;;;;;;2.50;1.00;;;16.70;99.90;;;;;;4987773;28;20517;-61
2023/09/20 00:38:09;;;;;;;1.88;0.80;;;16.60;99.90;;;;;;4988146;28;20039;-61
2023/09/20 00:40:35;;;;;;;2.50;1.30;;;16.60;99.90;;;;;;4971107;28;20133;-61
2023/09/20 00:43:06;;;;;;;5.45;2.05;;;16.60;99.90;;;;;;4970233;28;20050;-61
2023/09/20 00:45:32;;;;;;;6.28;1.17;;;16.60;99.90;;;;;;4970936;28;20467;-61
2023/09/20 00:47:59;;;;;;;2.58;1.00;;;16.60;99.90;;;;;;4971064;28;20046;-61
2023/09/20 00:50:31;;;;;;;3.17;1.25;;;16.60;99.90;;;;;;4969981;28;20046;-61
2023/09/20 00:52:57;;;;;;;3.92;0.90;;;16.60;99.90;;;;;;4970670;28;20046;-61
2023/09/20 00:55:30;;;;;;;2.47;0.88;;;16.60;99.90;;;;;;4989637;28;20038;-61
2023/09/20 00:58:16;;;;;;;5.13;1.35;;;16.60;99.90;;;;;;4973768;28;20121;-62
2023/09/20 01:00:45;;;;;;;2.65;1.23;;;16.70;99.90;;;;;;4973083;28;20058;-61
2023/09/20 01:03:17;;;;;;;4.68;1.88;;;16.70;99.90;;;;;;4973873;28;20042;-61
2023/09/20 01:05:43;;;;;;;1.65;0.60;;;16.70;99.90;;;;;;4974166;28;20038;-61
2023/09/20 01:08:09;;;;;;;4.07;0.90;;;16.70;99.90;;;;;;4974288;28;20044;-61
2023/09/20 01:10:38;;;;;;;2.17;1.08;;;16.70;99.90;;;;;;4991035;28;20450;-61
2023/09/20 01:13:05;;;;;;;1.55;0.75;;;16.70;99.90;;;;;;4973972;28;20073;-61
2023/09/20 01:15:33;;;;;;;3.35;0.98;;;16.70;99.90;;;;;;4974213;28;20034;-61
2023/09/20 01:18:00;;;;;;;4.25;1.08;;;16.70;99.90;;;;;;4957504;28;20034;-61
2023/09/20 01:20:28;;;;;;;2.33;0.88;;;16.80;99.90;;;;;;4974197;28;20085;-61
2023/09/20 01:22:56;;;;;;;2.70;0.95;;;16.80;99.90;;;;;;4973756;28;20075;-61
2023/09/20 01:25:24;;;;;;;2.95;0.98;;;16.80;99.90;;;;;;4973232;28;20051;-62
2023/09/20 01:27:55;;;;;;;6.32;1.08;;;16.80;99.90;;;;;;4974071;28;20104;-61
2023/09/20 01:30:28;;;;;;;1.80;1.13;;;16.80;99.90;;;;;;4973647;28;20054;-61
2023/09/20 01:32:56;;;;;;;2.50;1.00;;;16.80;99.90;;;;;;4956924;28;20126;-61
2023/09/20 01:35:23;;;;;;;1.73;0.70;;;16.80;99.90;;;;;;4973660;28;20723;-62
2023/09/20 01:37:49;;;;;;;1.33;0.82;;;16.80;99.90;;;;;;4973231;28;20394;-61
2023/09/20 01:40:16;;;;;;;1.42;0.80;;;16.80;99.90;;;;;;4973772;28;20049;-61
2023/09/20 01:42:43;;;;;;;3.55;1.48;;;16.90;99.90;;;;;;4973566;28;20050;-61
2023/09/20 01:45:16;;;;;;;4.20;1.10;;;16.90;99.90;;;;;;4973108;28;20053;-61
2023/09/20 01:47:47;;;;;;;3.60;1.77;;;16.90;99.90;;;;;;4973868;28;20058;-61
2023/09/20 01:50:19;;;;;;;1.75;0.85;;;16.90;99.90;;;;;;4973248;28;20043;-61
2023/09/20 01:52:46;;;;;;;5.95;1.13;;;17.00;99.90;;;;;;4972577;28;20435;-61
2023/09/20 01:55:15;;;;;;;2.42;1.00;;;16.90;99.90;;;;;;4973127;28;20046;-61
2023/09/20 01:57:45;;;;;;;4.32;1.75;;;16.90;99.90;;;;;;4973564;28;20540;-61
2023/09/20 02:00:28;;;;;;;1.60;1.02;;;16.90;99.90;;;;;;4972601;28;20129;-61
2023/09/20 02:02:57;;;;;;;3.70;0.88;;;16.90;99.90;;;;;;4956175;28;20057;-61
2023/09/20 02:05:23;;;;;;;2.13;1.33;;;16.90;99.90;;;;;;4953777;28;20351;-61
2023/09/20 02:07:51;;;;;;;4.75;1.60;;;16.90;99.90;;;;;;4988898;28;20042;-61
2023/09/20 02:10:17;;;;;;;3.78;1.05;;;16.90;99.90;;;;;;4973164;28;20479;-61
2023/09/20 02:12:48;;;;;;;1.85;0.88;;;16.90;99.90;;;;;;4972410;28;20043;-62
2023/09/20 02:15:15;;;;;;;4.05;0.98;;;16.90;99.90;;;;;;4973057;28;20038;-61
2023/09/20 02:17:50;;;;;;;2.33;1.10;;;16.90;99.90;;;;;;4972958;28;20050;-61
2023/09/20 02:20:20;;;;;;;3.28;1.10;;;16.90;99.90;;;;;;4972396;28;20043;-61
2023/09/20 02:22:53;;;;;;;2.72;0.93;;;16.90;99.90;;;;;;4972783;28;20494;-61
2023/09/20 02:25:26;;;;;;;4.63;1.17;;;16.90;99.90;;;;;;4972642;28;20054;-61
2023/09/20 02:27:58;;;;;;;4.72;1.30;;;16.90;99.90;;;;;;4972278;28;20050;-61
2023/09/20 02:30:36;;;;;;;3.55;1.40;;;16.80;99.90;;;;;;4972701;28;20075;-61
2023/09/20 02:33:06;;;;;;;2.67;0.98;;;16.80;99.90;;;;;;5001931;28;20082;-61
2023/09/20 02:35:33;;;;;;;2.15;1.20;;;16.80;99.90;;;;;;4967076;28;20050;-62
2023/09/20 02:38:00;;;;;;;4.43;0.95;;;16.80;99.90;;;;;;4972716;28;20043;-61
2023/09/20 02:40:29;;;;;;;6.63;1.58;;;16.80;99.90;;;;;;4972935;28;20038;-61
2023/09/20 02:43:00;;;;;;;2.72;1.20;;;16.90;99.90;;;;;;4972016;28;20486;-61
2023/09/20 02:45:32;;;;;;;1.65;0.65;;;16.90;99.90;;;;;;4990184;28;20129;-61
2023/09/20 02:47:58;;;;;;;1.05;0.60;;;16.90;99.90;;;;;;4972344;28;20058;-61
2023/09/20 02:50:25;;;;;;;7.72;1.75;;;16.90;99.90;;;;;;4972460;28;20046;-62
2023/09/20 02:52:52;;;;;;;3.75;1.17;;;16.90;99.90;;;;;;4972398;28;20506;-61
2023/09/20 02:55:20;;;;;;;1.83;1.05;;;16.90;99.90;;;;;;4972034;28;20038;-61
2023/09/20 02:57:54;;;;;;;2.15;1.45;;;16.80;99.90;;;;;;4972696;28;20081;-61
2023/09/20 03:00:22;;;;;;;2.80;1.10;;;16.80;99.90;;;;;;4972663;28;20043;-61
2023/09/20 03:02:52;;;;;;;1.83;0.93;;;16.80;99.90;;;;;;4972046;28;20133;-61
2023/09/20 03:05:31;;;;;;;4.25;1.20;;;16.70;99.90;;;;;;4989028;28;20089;-61
2023/09/20 03:07:57;;;;;;;1.67;1.05;;;16.70;99.90;;;;;;4989666;28;20049;-61
2023/09/20 03:10:24;;;;;;;2.42;0.82;;;16.80;99.90;;;;;;4989064;28;20034;-61
2023/09/20 03:12:51;;;;;;;6.75;2.15;;;16.80;99.90;;;;;;4989689;28;20046;-61
2023/09/20 03:15:22;;;;;;;2.42;1.13;;;16.80;99.90;;;;;;4972588;28;20432;-62
2023/09/20 03:17:52;;;;;;;4.40;1.17;;;16.80;99.90;;;;;;4988836;28;20046;-61
2023/09/20 03:20:32;;;;;;;1.75;1.15;;;16.80;99.90;;;;;;4972300;28;20045;-60
2023/09/20 03:23:05;;;;;;;2.50;1.00;;;16.80;99.90;;;;;;4971482;28;20050;-61
2023/09/20 03:25:36;;;;;;;2.55;1.00;;;16.80;99.90;;;;;;4989207;28;20050;-61
2023/09/20 03:28:07;;;;;;;2.25;0.80;;;16.80;99.90;;;;;;4989541;28;20538;-63
2023/09/20 03:30:34;;;;;;;3.63;0.98;;;16.70;99.90;;;;;;4971497;28;20046;-61
2023/09/20 03:33:00;;;;;;;1.20;0.70;;;16.70;99.90;;;;;;4971880;28;20148;-61
2023/09/20 03:35:27;;;;;;;4.93;1.05;;;16.70;99.90;;;;;;4972139;28;20041;-61
2023/09/20 03:37:54;;;;;;;4.28;1.33;;;16.70;99.90;;;;;;4971029;28;20047;-61
2023/09/20 03:40:21;;;;;;;4.38;1.58;;;16.60;99.90;;;;;;4972155;28;20386;-60
2023/09/20 03:42:48;;;;;;;1.67;0.98;;;16.60;99.90;;;;;;4972005;28;20057;-61
2023/09/20 03:45:16;;;;;;;3.08;0.50;;;16.60;99.90;;;;;;4971366;28;20352;-61
2023/09/20 03:47:44;;;;;;;3.40;1.10;;;16.50;99.90;;;;;;4971690;28;20802;-61
2023/09/20 03:50:11;;;;;;;5.57;1.03;;;16.50;99.90;;;;;;4955529;28;20042;-64
2023/09/20 03:52:38;;;;;;;2.88;1.08;;;16.50;99.90;;;;;;4970656;28;20050;-61
2023/09/20 03:55:05;;;;;;;5.78;1.60;;;16.40;99.90;;;;;;4971643;28;20042;-61
2023/09/20 03:57:31;;;;;;;3.10;1.02;;;16.30;99.90;;;;;;4988778;28;20725;-61
2023/09/20 04:00:00;;;;;;;5.65;1.02;;;16.30;99.90;;;;;;4971026;28;20042;-61
2023/09/20 04:02:28;;;;;;;4.57;1.33;;;16.30;99.90;;;;;;4971416;28;20130;-61
2023/09/20 04:04:55;;;;;;;1.75;0.80;;;16.20;99.90;;;;;;4987251;28;20456;-61
2023/09/20 04:07:26;;;;;;;1.35;0.93;;;16.20;99.90;;;;;;4955280;28;20496;-61
2023/09/20 04:09:52;;;;;;;2.28;0.82;;;16.10;99.90;;;;;;4970583;28;20559;-61
2023/09/20 04:12:18;;;;;;;2.08;0.88;;;16.10;99.90;;;;;;4970780;28;20042;-63
2023/09/20 04:14:44;;;;;;;5.10;1.10;;;16.00;99.90;;;;;;4971434;28;20111;-62
2023/09/20 04:17:10;;;;;;;2.83;1.30;;;16.00;99.90;;;;;;4971519;28;20051;-62
2023/09/20 04:19:39;;;;;;;4.25;1.20;;;15.90;99.90;;;;;;5038540;28;20115;-61
2023/09/20 04:22:06;;;;;;;4.45;1.52;;;15.90;99.90;;;;;;4988796;28;20048;-61
2023/09/20 04:24:33;;;;;;;3.45;1.23;;;15.90;99.90;;;;;;4970820;28;20058;-61
2023/09/20 04:27:22;;;;;;;2.00;1.27;;;15.90;99.90;;;;;;4970206;28;20095;-61
2023/09/20 04:29:48;;;;;;;;;;;15.90;99.90;;;;;;4970725;28;20496;-61
2023/09/20 04:32:14;;;;;;;1.02;0.82;;;15.90;99.90;;;;;;4971005;28;19917;-61
2023/09/20 04:34:40;;;;;;;1.63;0.80;;;15.90;99.90;;;;;;4970493;28;20043;-61
2023/09/20 04:37:06;;;;;;;2.60;1.17;;;15.80;99.90;;;;;;4971145;28;20096;-61
2023/09/20 04:39:32;;;;;;;1.10;0.68;;;15.80;99.90;;;;;;4970761;28;20056;-61
2023/09/20 04:41:57;;;;;;;2.28;1.15;;;15.70;99.90;;;;;;4987970;28;20064;-61
2023/09/20 04:44:23;;;;;;;1.65;1.00;;;15.70;99.90;;;;;;4970877;28;20125;-61
2023/09/20 04:46:49;;;;;;;2.00;1.10;;;15.70;99.90;;;;;;4987834;28;20081;-61
2023/09/20 04:49:15;;;;;;;2.53;1.13;;;15.70;99.90;;;;;;4988164;28;20042;-61
2023/09/20 04:51:44;;;;;;;5.30;0.80;;;15.60;99.90;;;;;;4971139;28;20046;-61
2023/09/20 04:54:10;;;;;;;4.53;1.38;;;15.60;99.90;;;;;;4969835;28;20075;-61
2023/09/20 04:56:36;;;;;;;2.72;1.15;;;15.60;99.90;;;;;;4970816;28;20133;-61
2023/09/20 04:59:04;;;;;;;4.65;1.10;;;15.60;99.90;;;;;;4970974;28;20046;-61
2023/09/20 05:01:31;;;;;;;2.00;0.88;;;15.70;99.90;;;;;;4987563;28;20045;-61
2023/09/20 05:03:57;;;;;;;2.03;1.05;;;15.70;99.90;;;;;;4970783;28;20047;-61
2023/09/20 05:06:23;;;;;;;1.50;0.85;;;15.70;99.90;;;;;;4970771;28;20050;-61
2023/09/20 05:08:50;;;;;;;1.50;0.80;;;15.70;99.90;;;;;;4970107;28;20135;-62
2023/09/20 05:11:18;;;;;;;5.43;0.88;;;15.70;99.90;;;;;;4970038;28;20039;-63
2023/09/20 05:13:45;;;;;;;1.40;0.80;;;15.70;99.90;;;;;;4954165;28;20042;-61
2023/09/20 05:16:11;;;;;;;4.00;1.40;;;15.70;99.90;;;;;;4970030;28;20078;-61
2023/09/20 05:18:37;;;;;;;2.67;0.80;;;15.60;99.90;;;;;;4970420;28;20116;-62
2023/09/20 05:21:02;;;;;;;1.70;1.20;;;15.70;99.90;;;;;;4970737;28;20081;-61
2023/09/20 05:23:28;;;;;;;2.90;0.93;;;15.70;99.90;;;;;;5038031;28;20506;-61
2023/09/20 05:25:54;;;;;;;1.92;1.02;;;15.80;99.90;;;;;;4970243;28;20069;-62
2023/09/20 05:28:20;;;;;;;2.17;1.02;;;15.90;99.90;;;;;;4954509;28;20046;-61
2023/09/20 05:30:46;;;;;;;3.30;0.90;;;16.00;99.90;;;;;;4969816;28;20486;-61
2023/09/20 05:33:13;;;;;;;2.03;1.23;;;16.00;99.90;;;;;;4970033;28;20046;-62
2023/09/20 05:35:43;;;;;;;2.15;0.95;;;16.00;99.90;;;;;;4969060;28;20117;-63
2023/09/20 05:38:12;;;;;;;0.95;0.65;;;16.10;99.90;;;;;;4970063;28;20054;-62
2023/09/20 05:40:38;;;;;;;2.10;0.85;;;16.10;99.90;;;;;;4954330;28;20038;-62
2023/09/20 05:43:04;;;;;;;3.45;1.65;;;16.10;99.90;;;;;;4957196;28;20042;-61
2023/09/20 05:45:31;;;;;;;3.55;1.10;;;16.20;99.90;;;;;;4957461;28;20121;-61
2023/09/20 05:47:58;;;;;;;1.45;0.85;;;16.20;99.90;;;;;;4973566;28;20051;-64
2023/09/20 05:50:33;;;;;;;1.15;0.82;;;16.20;99.90;;;;;;4990081;28;20053;-61
2023/09/20 05:53:06;;;;;;;1.98;0.50;;;16.20;99.90;;;;;;4973422;28;20066;-62
2023/09/20 05:55:36;;;;;;;1.60;0.60;;;16.20;99.90;;;;;;4973628;28;20039;-61
2023/09/20 05:58:02;;;;;;;;;;;16.20;99.90;;;;;;4973417;28;20050;-61
2023/09/20 06:00:29;;;;;;;1.90;0.68;;;16.30;99.90;;;;;;5075203;28;19918;-61
2023/09/20 06:02:59;;;;;;;2.78;1.15;;;16.20;99.90;;;;;;4973179;28;20108;-61
2023/09/20 06:05:30;;;;;;;2.58;1.20;;;16.30;99.90;;;;;;4972785;28;20062;-61
2023/09/20 06:07:57;;;;;;;2.58;0.88;;;16.30;99.90;;;;;;4973408;28;20583;-61
2023/09/20 06:10:23;;;;;;;4.43;0.80;;;16.30;99.90;;;;;;4973093;28;20203;-61
2023/09/20 06:12:52;;;;;;;0.75;0.57;;;16.30;99.90;;;;;;4972491;28;20039;-61
2023/09/20 06:15:19;;;;;;;2.55;1.58;;;16.30;99.90;;;;;;4972232;28;20039;-61
2023/09/20 06:17:48;;;;;;;2.03;1.00;;;16.30;99.90;;;;;;4972477;28;20042;-61
2023/09/20 06:20:19;;;;;;;4.18;0.90;;;16.20;99.90;;;;;;4972974;28;20107;-62
2023/09/20 06:22:53;;;;;;;1.02;0.60;;;16.20;99.90;;;;;;4973036;28;20054;-61
2023/09/20 06:25:22;;;;;;;2.40;0.95;;;16.30;99.90;;;;;;4956234;28;20465;-61
2023/09/20 06:27:50;;;;;;;3.88;0.80;;;16.20;99.90;;;;;;4990445;28;20496;-61
2023/09/20 06:30:21;;;;;;;2.23;0.73;;;16.20;99.90;;;;;;4972858;28;20042;-61
2023/09/20 06:32:48;;;;;;;2.13;0.85;;;16.30;99.90;;;;;;4972239;28;20038;-61
2023/09/20 06:35:15;;;;;;;1.48;0.70;;;16.20;99.90;;;;;;4972685;28;20038;-60
2023/09/20 06:37:45;;;;;;;1.63;0.85;;;16.30;99.90;;;;;;4990173;28;20035;-61
2023/09/20 06:40:36;;;;;;;2.25;0.70;;;16.30;99.90;;;;;;4976807;28;20045;-62
2023/09/20 06:43:02;;;;;;;5.95;0.90;;;16.30;99.90;;;;;;4992023;28;20045;-61
2023/09/20 06:45:28;;;;;;;3.40;0.90;;;16.30;99.90;;;;;;5008327;28;20095;-61
2023/09/20 06:47:57;;;;;;;1.95;1.08;;;16.40;99.90;;;;;;4972200;28;20038;-60
2023/09/20 06:50:23;;;;;;;5.13;0.90;;;16.40;99.90;;;;;;4989816;28;20096;-60
2023/09/20 06:52:51;;;;;;;2.15;0.90;;;16.50;99.90;;;;;;4988751;28;20039;-60
2023/09/20 06:55:18;;;;;;;1.63;1.00;;;16.50;99.90;;;;;;4975608;28;20059;-61
2023/09/20 06:57:47;;;;;;;4.88;1.02;;;16.50;99.90;;;;;;4972652;28;20064;-60
2023/09/20 07:00:50;;;;;;;1.23;0.63;;;16.50;99.90;;;;;;4989312;28;20559;-61
2023/09/20 07:03:08;;;;;;;3.05;1.30;;;16.60;99.90;;;;;;4975000;28;20524;-62
2023/09/20 07:05:34;;;;;;;1.75;0.68;;;16.60;99.90;;;;;;4975899;28;20046;-60
2023/09/20 07:08:01;;;;;;;3.03;1.08;;;16.70;99.90;;;;;;4991202;28;20151;-63
2023/09/20 07:10:29;;;;;;;3.08;0.80;;;16.80;99.90;;;;;;4991479;28;20086;-63
2023/09/20 07:12:55;;;;;;;3.83;0.85;;;16.80;99.90;;;;;;5009252;28;20386;-62
2023/09/20 07:15:25;;;;;;;6.53;1.88;;;16.90;99.90;;;;;;4989021;28;20072;-61
2023/09/20 07:17:58;;;;;;;1.15;0.73;;;17.00;99.90;;;;;;4988606;28;20412;-62
2023/09/20 07:20:28;;;;;;;1.77;0.77;;;17.10;99.90;;;;;;4971866;28;20046;-61
2023/09/20 07:22:54;;;;;;;1.45;0.88;;;17.30;99.90;;;;;;4971488;28;20563;-62
2023/09/20 07:25:21;;;;;;;2.63;1.38;;;17.40;99.90;;;;;;4984628;28;20061;-61
2023/09/20 07:27:55;;;;;;;2.47;0.70;;;17.60;99.90;;;;;;4994573;28;20099;-61
2023/09/20 07:30:22;;;;;;;2.70;1.42;;;17.60;99.90;;;;;;4987483;28;20096;-60
2023/09/20 07:32:50;;;;;;;1.48;0.73;;;17.60;99.90;;;;;;4998896;28;20045;-60
2023/09/20 07:35:25;;;;;;;2.17;1.27;;;17.60;99.90;;;;;;4984221;28;20049;-61
2023/09/20 07:37:57;;;;;;;2.28;0.88;;;17.60;99.90;;;;;;5036560;28;20196;-62
2023/09/20 07:40:30;;;;;;;1.75;0.70;;;17.50;99.90;;;;;;5036374;28;20546;-60
2023/09/20 07:43:04;;;;;;;1.08;0.63;;;17.40;99.90;;;;;;4962884;28;20055;-61
2023/09/20 07:45:41;;;;;;;4.97;1.10;;;17.40;99.90;;;;;;4971473;28;20079;-61
2023/09/20 07:48:12;;;;;;;1.25;0.82;;;17.30;99.90;;;;;;4969494;28;20091;-61
2023/09/20 07:50:43;;;;;;;3.08;1.05;;;17.20;99.90;;;;;;4988070;28;20038;-61
2023/09/20 07:53:14;;;;;;;2.88;0.93;;;17.20;99.90;;;;;;4970977;28;20038;-61
2023/09/20 07:55:45;;;;;;;1.83;0.75;;;17.20;99.90;;;;;;4988357;28;20514;-61
2023/09/20 07:58:15;;;;;;;2.15;1.25;;;17.20;99.90;;;;;;4971204;28;20050;-61
2023/09/20 08:00:47;;;;;;;1.45;0.80;;;17.20;99.90;;;;;;4971336;28;20721;-60
2023/09/20 08:03:14;;;;;;;4.35;1.35;;;17.20;99.90;;;;;;4970698;28;20050;-60
2023/09/20 08:05:41;;;;;;;1.88;0.93;;;17.30;99.90;;;;;;4970159;28;20050;-60
2023/09/20 08:08:10;;;;;;;2.28;1.05;;;17.30;99.90;;;;;;4971302;28;20057;-60
2023/09/20 08:10:38;;;;;;;3.58;1.25;;;17.30;99.90;;;;;;4970737;28;20080;-60
2023/09/20 08:13:05;;;;;;;5.55;1.08;;;17.40;99.90;;;;;;4991697;28;20076;-61
2023/09/20 08:15:36;;;;;;;3.00;1.17;;;17.40;99.90;;;;;;4971114;28;20038;-61
2023/09/20 08:20:47;;;;;;;2.63;1.15;;;17.50;99.90;;;;;;4970349;28;20683;-60
2023/09/20 09:01:45;;;;;;;2.63;1.17;;;17.60;99.90;;;;;;4970953;28;20051;-63
2023/09/20 09:04:13;;;;;;;1.45;1.02;;;17.50;99.90;;;;;;4970509;28;20065;-63
2023/09/20 09:06:40;;;;;;;2.65;1.15;;;17.50;99.90;;;;;;4987668;28;20053;-63
2023/09/20 09:09:06;;;;;;;3.53;0.88;;;17.50;99.90;;;;;;4970331;28;20039;-64
2023/09/20 09:11:31;;;;;;;2.33;1.35;;;17.50;99.90;;;;;;4970410;28;20057;-63
2023/09/20 09:13:58;;;;;;;1.77;1.02;;;17.50;99.90;;;;;;4969818;28;20121;-64
2023/09/20 09:16:26;;;;;;;4.38;1.65;;;17.50;99.90;;;;;;4988959;28;20034;-64
2023/09/20 09:18:54;;;;;;;2.25;1.20;;;17.50;99.90;;;;;;4998027;28;20513;-63
2023/09/20 09:21:20;;;;;;;2.90;1.53;;;17.50;99.90;;;;;;4971192;28;20042;-63
2023/09/20 09:23:47;;;;;;;1.63;1.08;;;17.50;99.90;;;;;;4978970;28;20100;-64
2023/09/20 09:26:19;;;;;;;2.28;1.27;;;17.50;99.90;;;;;;4973362;28;20073;-63
2023/09/20 09:28:45;;;;;;;5.30;1.63;;;17.50;99.90;;;;;;4973055;28;20047;-63
2023/09/20 09:31:13;;;;;;;3.60;1.40;;;17.50;99.90;;;;;;4973714;28;20055;-63
2023/09/20 09:33:39;;;;;;;2.78;1.65;;;17.50;99.90;;;;;;4990469;28;20045;-64
2023/09/20 09:36:06;;;;;;;3.80;1.50;;;17.60;99.90;;;;;;5000796;28;20033;-64
2023/09/20 09:38:34;;;;;;;2.60;1.75;;;17.60;99.90;;;;;;5010381;28;20050;-64
2023/09/20 09:41:02;;;;;;;3.78;1.98;;;17.60;99.90;;;;;;4974869;28;20049;-64
2023/09/20 09:43:31;;;;;;;2.75;1.83;;;17.70;99.90;;;;;;5009928;28;20129;-63
2023/09/20 09:46:08;;;;;;;2.50;1.70;;;17.70;99.90;;;;;;4992956;28;20470;-63
2023/09/20 09:48:37;;;;;;;7.85;1.90;;;17.70;99.90;;;;;;4991547;28;20038;-63
2023/09/20 09:51:08;;;;;;;2.90;1.88;;;17.80;99.90;;;;;;5010459;28;20449;-63
2023/09/20 09:53:37;;;;;;;4.45;1.73;;;17.80;99.90;;;;;;4983947;28;20114;-63
2023/09/20 09:56:07;;;;;;;2.33;1.47;;;18.00;99.90;;;;;;4972862;28;20120;-64
2023/09/20 09:58:33;;;;;;;2.35;1.83;;;18.10;99.90;;;;;;4973392;28;20046;-64
2023/09/20 10:01:04;;;;;;;3.05;2.13;;;18.10;99.90;;;;;;4957310;28;20042;-63
2023/09/20 10:03:32;;;;;;;5.93;2.13;;;18.10;99.90;;;;;;4972565;28;20046;-66
2023/09/20 10:06:13;;;;;;;2.60;1.48;;;18.20;99.90;;;;;;4953996;28;20050;-64
2023/09/20 10:08:41;;;;;;;5.18;1.88;;;18.20;99.90;;;;;;5001003;28;20038;-64
2023/09/20 10:11:08;;;;;;;2.55;1.40;;;18.20;99.90;;;;;;5010181;28;20081;-63
2023/09/20 10:13:39;;;;;;;2.40;1.45;;;18.10;99.90;;;;;;4992876;28;20033;-64
2023/09/20 10:16:10;;;;;;;2.45;1.25;;;18.00;99.90;;;;;;4967924;28;20046;-63
2023/09/20 10:19:07;;;;;;;5.10;1.77;;;18.00;99.90;;;;;;4973228;28;20053;-63
2023/09/20 10:21:33;;;;;;;2.95;1.83;;;17.90;99.90;;;;;;4989288;28;20093;-64
2023/09/20 10:24:04;;;;;;;2.63;2.00;;;17.90;99.90;;;;;;4972483;28;20122;-64
2023/09/20 10:26:34;;;;;;;4.40;2.47;;;17.90;99.90;;;;;;4971650;28;20055;-64
2023/09/20 10:29:39;;;;;;;3.55;1.60;;;18.00;99.90;;;;;;4971867;28;20054;-66
2023/09/20 10:32:13;;;;;;;2.58;1.23;;;18.10;99.90;;;;;;4923373;29;20043;-65
2023/09/20 10:34:40;;;;;;;8.60;2.00;;;18.20;99.90;;;;;;5013669;28;20214;-66
2023/09/20 10:37:08;;;;;;;2.45;1.77;;;18.30;99.90;;;;;;5012997;28;20087;-65
2023/09/20 10:39:34;;;;;;;2.40;1.40;;;18.30;99.90;;;;;;4913618;29;20115;-66
2023/09/20 10:42:12;;;;;;;2.70;1.60;;;18.40;99.90;;;;;;4913946;29;20102;-64
2023/09/20 10:44:41;;;;;;;2.78;1.58;;;18.50;99.90;;;;;;4913305;29;20043;-67
2023/09/20 10:47:11;;;;;;;3.33;1.70;;;18.50;99.90;;;;;;4929671;29;20051;-65
2023/09/20 10:49:48;;;;;;;3.47;1.75;;;18.50;99.90;;;;;;4913750;29;20086;-65
2023/09/20 10:52:37;;;;;;;2.40;1.30;;;18.60;99.90;;;;;;5012689;28;20064;-65
2023/09/20 10:55:22;;;;;;;1.95;1.40;;;18.70;99.90;;;;;;4898380;29;20115;-65
2023/09/20 10:57:51;;;;;;;1.88;1.20;;;18.70;99.90;;;;;;4913195;29;20080;-66
2023/09/20 11:00:30;;;;;;;3.08;1.27;;;18.70;99.90;;;;;;4922706;29;20057;-66
2023/09/20 11:02:56;;;;;;;2.57;1.67;;;18.70;99.90;;;;;;5013114;28;20055;-65
2023/09/20 11:05:29;;;;;;;4.45;1.73;;;18.70;99.90;;;;;;4943425;28;20364;-66
2023/09/20 11:07:55;;;;;;;6.13;1.90;;;18.70;99.90;;;;;;4989642;28;20057;-66
2023/09/20 11:10:23;;;;;;;3.88;1.83;;;18.70;99.90;;;;;;5004798;28;20107;-66
2023/09/20 11:12:50;;;;;;;1.95;1.38;;;18.70;99.90;;;;;;4979717;28;20057;-65
2023/09/20 11:15:16;;;;;;;3.30;1.83;;;18.70;99.90;;;;;;4971852;28;20108;-66
2023/09/20 11:17:42;;;;;;;1.40;1.05;;;18.60;99.90;;;;;;4972017;28;20104;-63
2023/09/20 11:20:11;;;;;;;4.43;1.98;;;18.60;99.90;;;;;;4971436;28;20046;-66
2023/09/20 11:22:37;;;;;;;3.65;1.73;;;18.60;99.90;;;;;;4997722;28;20436;-65
2023/09/20 11:25:07;;;;;;;3.25;1.40;;;18.60;99.90;;;;;;4974376;28;20062;-66
2023/09/20 11:27:36;;;;;;;4.85;2.03;;;18.60;99.90;;;;;;4974790;28;20141;-65
2023/09/20 11:30:05;;;;;;;6.32;1.92;;;18.50;99.90;;;;;;4951714;28;20668;-65
2023/09/20 11:32:31;;;;;;;3.78;2.17;;;18.50;99.90;;;;;;4952717;28;20046;-65
2023/09/20 11:34:57;;;;;;;3.35;1.90;;;18.50;99.90;;;;;;4971599;28;20431;-65
2023/09/20 11:37:23;;;;;;;3.28;2.15;;;18.60;99.90;;;;;;4964603;28;20076;-65
2023/09/20 11:39:50;;;;;;;4.68;2.30;;;18.60;99.90;;;;;;4970525;28;20054;-66
2023/09/20 11:42:33;;;;;;;3.30;2.13;;;18.60;99.90;;;;;;4988806;28;20049;-65
2023/09/20 11:45:05;;;;;;;3.00;1.90;;;18.60;99.90;;;;;;4971969;28;20035;-65
2023/09/20 11:47:31;;;;;;;5.43;2.33;;;18.60;99.90;;;;;;4970873;28;20091;-65
2023/09/20 11:49:58;;;;;;;2.33;1.70;;;18.70;99.90;;;;;;4971131;28;20490;-65
2023/09/20 11:52:24;;;;;;;2.30;1.77;;;18.70;99.90;;;;;;4970631;28;20053;-65
2023/09/20 11:54:53;;;;;;;3.03;2.28;;;18.80;99.90;;;;;;4953337;28;20034;-66
2023/09/20 11:57:22;;;;;;;4.32;1.88;;;18.80;99.90;;;;;;4971260;28;20042;-65
2023/09/20 11:59:48;;;;;;;4.57;2.28;;;18.80;99.90;;;;;;4970602;28;20057;-65
2023/09/20 12:02:14;;;;;;;6.38;2.05;;;18.70;99.90;;;;;;4988214;28;20038;-65
2023/09/20 12:04:39;;;;;;;4.18;2.15;;;18.70;99.90;;;;;;4971397;28;20382;-66
2023/09/20 12:07:08;;;;;;;2.83;1.65;;;18.70;99.90;;;;;;4971372;28;20147;-66
2023/09/20 12:13:15;;;;;;;5.60;1.98;;;18.90;99.90;;;;;;4988196;28;20476;-65
2023/09/20 12:15:43;;;;;;;1.80;1.48;;;18.90;99.90;;;;;;4954738;28;20035;-64
2023/09/20 12:18:13;;;;;;;3.83;1.80;;;18.90;99.90;;;;;;4970825;28;20042;-65
2023/09/20 12:20:39;;;;;;;2.58;1.40;;;18.90;99.90;;;;;;4964534;28;20049;-64
2023/09/20 12:23:06;;;;;;;1.83;1.10;;;18.90;99.90;;;;;;4969796;28;20129;-66
2023/09/20 12:25:31;;;;;;;1.60;1.17;;;19.00;99.90;;;;;;4970934;28;20104;-65
2023/09/20 12:27:57;;;;;;;2.38;1.17;;;19.10;99.90;;;;;;4971203;28;20460;-66
2023/09/20 12:30:27;;;;;;;2.17;1.35;;;19.20;99.90;;;;;;4969913;28;20108;-64
2023/09/20 12:32:54;;;;;;;2.20;1.13;;;19.20;99.90;;;;;;4970135;28;20493;-65
2023/09/20 12:35:19;;;;;;;1.65;1.08;;;19.30;99.90;;;;;;4954858;28;20038;-67
2023/09/20 12:37:45;;;;;;;3.03;1.20;;;19.40;99.90;;;;;;4970500;28;20038;-65
2023/09/20 12:40:11;;;;;;;4.70;1.50;;;19.50;99.90;;;;;;4970834;28;20046;-65
2023/09/20 12:42:38;;;;;;;3.63;1.17;;;19.50;99.90;;;;;;4954171;28;20042;-64
2023/09/20 12:45:07;;;;;;;2.38;1.17;;;19.50;99.90;;;;;;4970456;28;20052;-65
2023/09/20 12:47:34;;;;;;;2.83;1.20;;;19.50;99.90;;;;;;4971084;28;20482;-65
2023/09/20 12:50:03;;;;;;;1.63;1.00;;;19.40;99.90;;;;;;4987487;28;20497;-65
2023/09/20 12:52:29;;;;;;;;;;;19.40;99.90;;;;;;4970759;28;20513;-65
2023/09/20 12:54:55;;;;;;;3.13;1.58;;;19.40;99.90;;;;;;4970233;28;19917;-64
2023/09/20 12:57:24;;;;;;;3.45;0.90;;;19.50;99.90;;;;;;4987601;28;20053;-66
2023/09/20 12:59:49;;;;;;;1.70;1.07;;;19.50;99.90;;;;;;4970819;28;20056;-65
2023/09/20 13:02:15;;;;;;;3.10;1.20;;;19.60;99.90;;;;;;4970515;28;20133;-65
2023/09/20 13:04:46;;;;;;;3.53;1.48;;;19.70;99.90;;;;;;4987352;28;20046;-66
2023/09/20 13:07:12;;;;;;;12.63;2.55;;;19.80;99.90;;;;;;4988044;28;20057;-65
2023/09/20 13:09:39;;;;;;;4.57;1.63;;;20.00;99.90;;;;;;4970364;28;20586;-65
2023/09/20 13:12:05;;;;;;;3.75;1.50;;;20.20;99.90;;;;;;4969923;28;20077;-65
2023/09/20 13:14:31;;;;;;;4.57;1.38;;;20.30;99.90;;;;;;4970364;28;20247;-65
2023/09/20 13:16:57;;;;;;;3.42;2.10;;;20.40;99.90;;;;;;4970390;28;20038;-64
2023/09/20 13:19:23;;;;;;;2.97;1.33;;;20.50;99.90;;;;;;4969851;28;20121;-66
2023/09/20 13:21:48;;;;;;;2.90;1.33;;;20.50;99.90;;;;;;4954279;28;20053;-65
2023/09/20 13:24:15;;;;;;;1.63;1.05;;;20.60;99.90;;;;;;4970189;28;20051;-65
2023/09/20 13:26:43;;;;;;;3.13;0.80;;;20.60;99.90;;;;;;4969884;28;20106;-65
2023/09/20 13:29:10;;;;;;;2.03;1.20;;;20.60;99.90;;;;;;4954051;28;20050;-64
2023/09/20 13:31:38;;;;;;;2.72;1.02;;;20.60;99.90;;;;;;4969805;28;20382;-64
2023/09/20 13:34:08;;;;;;;1.33;0.95;;;20.60;99.90;;;;;;4973747;28;20034;-65
2023/09/20 13:36:33;;;;;;;;;;;20.50;99.90;;;;;;4989297;28;20054;-61
2023/09/20 13:38:59;;;;;;;4.28;1.63;;;20.50;99.90;;;;;;4989118;28;19925;-60
2023/09/20 13:41:25;;;;;;;2.25;1.00;;;20.50;99.90;;;;;;4989607;28;20042;-61